Página principal
METAR-TAF:

METAR-TAF

Aeroportos :

Aeroporto Internacional de Xangai Pudong

Xangai-Pudong, China

latitude: 31-07N, longitude: 121-46E, altura: 4 m

Observação actual do tempo

O boletim foi feito há 26 minutos, às 20:00 UTC
Vento 12 kt de es-sudeste
Temperatura 14°C
Humidade 94%
Pressão 1019 hPa
Visibilidade 10 km ou mais
Poucas nuvensa uma altura de 2000 ft
Encobertoa uma altura de 3300 ft
chuva fraca

METAR: ZSPD 202000Z 11006MPS 9999 -RA FEW020 OVC033 14/13 Q1019 BECMG TL2100 RA

Hora: 04:26 (20:26 UTC)

Previsão

O boletim foi feito há 5 horas e 12 minutos, às 15:14 UTC
Previsão válida de 20 às 18 UTC a 21 às 18 UTC
Vento 8 kt de es-sudeste
Visibilidade: 6000 m
Nuvens fragmentadasa uma altura de 1000 ft
Temporariamente
de 20 às 18 UTC a 20 às 24 UTC
aguaceiros de chuva
Tornando-se
de 21 às 01 UTC a 21 às 03 UTC
Vento 12 kt de nor-noroeste

TAF: ZSPD 201514Z 2018/2118 12004MPS 6000 BKN010 TX17/2106Z TN12/2021Z TEMPO 2018/2024 SHRA BECMG 2101/2103 34006MPS

Observações e previsões do tempo de mais de 4000 aeroportos (mensagens METAR e TAF).

As estações disponíveis são os pontos amarelos e vermelhos sobre o mapa.

Mova o rato sobre o mapa para ver o nome da estação.

Depois clique no ponto para visualizar as observações e previsões meteorológicas.

Para alterar o mapa : clique nos botões verdes com uma cruz preta para aumentar o zoom; no botão verde com uma pitada de zoom; ou nas setas verdes para mapas adjacentes.


METAR-TAF: